sensor_id;sensor_type;location;lat;lon;timestamp;P1;durP1;ratioP1;P2;durP2;ratioP2
44165;SDS011;30476;53.468;9.826;2023-07-13T00:01:43;1.30;;;1.20;;
44165;SDS011;30476;53.468;9.826;2023-07-13T00:04:08;1.40;;;1.30;;
44165;SDS011;30476;53.468;9.826;2023-07-13T00:06:34;1.20;;;1.00;;
44165;SDS011;30476;53.468;9.826;2023-07-13T00:09:00;11.50;;;1.50;;
44165;SDS011;30476;53.468;9.826;2023-07-13T00:11:26;1.40;;;1.30;;
44165;SDS011;30476;53.468;9.826;2023-07-13T00:13:52;1.60;;;1.50;;
44165;SDS011;30476;53.468;9.826;2023-07-13T00:16:19;1.70;;;1.50;;
44165;SDS011;30476;53.468;9.826;2023-07-13T00:18:45;1.40;;;1.30;;
44165;SDS011;30476;53.468;9.826;2023-07-13T00:21:12;2.03;;;1.83;;
44165;SDS011;30476;53.468;9.826;2023-07-13T00:23:38;1.90;;;1.80;;
44165;SDS011;30476;53.468;9.826;2023-07-13T00:26:06;2.23;;;2.13;;
44165;SDS011;30476;53.468;9.826;2023-07-13T00:28:34;2.60;;;2.40;;
44165;SDS011;30476;53.468;9.826;2023-07-13T00:31:00;3.03;;;2.57;;
44165;SDS011;30476;53.468;9.826;2023-07-13T00:33:27;2.40;;;2.30;;
44165;SDS011;30476;53.468;9.826;2023-07-13T00:35:54;3.47;;;2.20;;
44165;SDS011;30476;53.468;9.826;2023-07-13T00:38:20;4.40;;;2.77;;
44165;SDS011;30476;53.468;9.826;2023-07-13T00:40:46;3.00;;;2.80;;
44165;SDS011;30476;53.468;9.826;2023-07-13T00:43:13;2.80;;;2.60;;
44165;SDS011;30476;53.468;9.826;2023-07-13T00:48:11;2.50;;;2.40;;
44165;SDS011;30476;53.468;9.826;2023-07-13T00:50:39;3.47;;;3.27;;
44165;SDS011;30476;53.468;9.826;2023-07-13T00:53:06;3.17;;;2.97;;
44165;SDS011;30476;53.468;9.826;2023-07-13T00:55:33;3.23;;;3.03;;
44165;SDS011;30476;53.468;9.826;2023-07-13T00:58:00;3.20;;;3.00;;
44165;SDS011;30476;53.468;9.826;2023-07-13T01:00:27;3.07;;;2.70;;
44165;SDS011;30476;53.468;9.826;2023-07-13T01:02:55;3.03;;;2.83;;
44165;SDS011;30476;53.468;9.826;2023-07-13T01:05:21;5.67;;;5.10;;
44165;SDS011;30476;53.468;9.826;2023-07-13T01:07:48;6.20;;;5.17;;
44165;SDS011;30476;53.468;9.826;2023-07-13T01:10:17;4.93;;;4.53;;
44165;SDS011;30476;53.468;9.826;2023-07-13T01:12:46;4.07;;;3.83;;
44165;SDS011;30476;53.468;9.826;2023-07-13T01:15:33;4.10;;;3.87;;
44165;SDS011;30476;53.468;9.826;2023-07-13T01:18:01;3.40;;;3.10;;
44165;SDS011;30476;53.468;9.826;2023-07-13T01:20:28;3.47;;;3.27;;
44165;SDS011;30476;53.468;9.826;2023-07-13T01:22:54;3.17;;;3.07;;
44165;SDS011;30476;53.468;9.826;2023-07-13T01:25:20;3.53;;;3.23;;
44165;SDS011;30476;53.468;9.826;2023-07-13T01:27:46;3.47;;;3.07;;
44165;SDS011;30476;53.468;9.826;2023-07-13T01:30:12;3.47;;;3.27;;
44165;SDS011;30476;53.468;9.826;2023-07-13T01:32:38;4.40;;;4.10;;
44165;SDS011;30476;53.468;9.826;2023-07-13T01:35:07;4.13;;;3.73;;
44165;SDS011;30476;53.468;9.826;2023-07-13T01:37:32;7.30;;;3.87;;
44165;SDS011;30476;53.468;9.826;2023-07-13T01:40:02;4.10;;;3.90;;
44165;SDS011;30476;53.468;9.826;2023-07-13T01:42:29;4.33;;;4.03;;
44165;SDS011;30476;53.468;9.826;2023-07-13T01:44:55;3.93;;;3.73;;
44165;SDS011;30476;53.468;9.826;2023-07-13T01:47:22;3.40;;;3.20;;
44165;SDS011;30476;53.468;9.826;2023-07-13T01:49:48;4.13;;;3.87;;
44165;SDS011;30476;53.468;9.826;2023-07-13T01:52:15;5.27;;;3.97;;
44165;SDS011;30476;53.468;9.826;2023-07-13T01:54:40;3.40;;;3.10;;
44165;SDS011;30476;53.468;9.826;2023-07-13T01:57:06;3.50;;;3.30;;
44165;SDS011;30476;53.468;9.826;2023-07-13T01:59:32;4.10;;;3.80;;
44165;SDS011;30476;53.468;9.826;2023-07-13T02:01:58;4.00;;;3.70;;
44165;SDS011;30476;53.468;9.826;2023-07-13T02:04:24;3.80;;;3.50;;
44165;SDS011;30476;53.468;9.826;2023-07-13T02:06:50;4.73;;;4.20;;
44165;SDS011;30476;53.468;9.826;2023-07-13T02:09:16;5.23;;;4.73;;
44165;SDS011;30476;53.468;9.826;2023-07-13T02:11:42;4.13;;;3.70;;
44165;SDS011;30476;53.468;9.826;2023-07-13T02:14:07;3.90;;;3.60;;
44165;SDS011;30476;53.468;9.826;2023-07-13T02:16:33;4.30;;;3.90;;
44165;SDS011;30476;53.468;9.826;2023-07-13T02:18:59;4.63;;;4.33;;
44165;SDS011;30476;53.468;9.826;2023-07-13T02:21:25;4.73;;;4.30;;
44165;SDS011;30476;53.468;9.826;2023-07-13T02:23:51;4.00;;;3.80;;
44165;SDS011;30476;53.468;9.826;2023-07-13T02:26:18;3.70;;;3.50;;
44165;SDS011;30476;53.468;9.826;2023-07-13T02:28:44;5.20;;;4.70;;
44165;SDS011;30476;53.468;9.826;2023-07-13T02:31:11;4.77;;;4.30;;
44165;SDS011;30476;53.468;9.826;2023-07-13T02:33:39;4.73;;;4.33;;
44165;SDS011;30476;53.468;9.826;2023-07-13T02:36:04;5.50;;;5.10;;
44165;SDS011;30476;53.468;9.826;2023-07-13T02:38:31;5.23;;;4.10;;
44165;SDS011;30476;53.468;9.826;2023-07-13T02:40:59;4.27;;;3.47;;
44165;SDS011;30476;53.468;9.826;2023-07-13T02:43:25;4.83;;;4.27;;
44165;SDS011;30476;53.468;9.826;2023-07-13T02:45:51;4.40;;;4.10;;
44165;SDS011;30476;53.468;9.826;2023-07-13T02:48:16;4.27;;;3.90;;
44165;SDS011;30476;53.468;9.826;2023-07-13T02:50:43;4.30;;;4.00;;
44165;SDS011;30476;53.468;9.826;2023-07-13T02:53:10;4.10;;;3.80;;
44165;SDS011;30476;53.468;9.826;2023-07-13T02:55:36;5.83;;;3.93;;
44165;SDS011;30476;53.468;9.826;2023-07-13T02:58:01;3.70;;;3.40;;
44165;SDS011;30476;53.468;9.826;2023-07-13T03:00:27;3.90;;;3.67;;
44165;SDS011;30476;53.468;9.826;2023-07-13T03:02:54;3.50;;;3.30;;
44165;SDS011;30476;53.468;9.826;2023-07-13T03:05:22;3.97;;;3.40;;
44165;SDS011;30476;53.468;9.826;2023-07-13T03:07:48;4.10;;;3.80;;
44165;SDS011;30476;53.468;9.826;2023-07-13T03:10:14;4.53;;;4.10;;
44165;SDS011;30476;53.468;9.826;2023-07-13T03:12:41;3.60;;;3.40;;
44165;SDS011;30476;53.468;9.826;2023-07-13T03:15:07;4.10;;;3.80;;
44165;SDS011;30476;53.468;9.826;2023-07-13T03:17:33;3.97;;;3.77;;
44165;SDS011;30476;53.468;9.826;2023-07-13T03:19:59;5.00;;;4.47;;
44165;SDS011;30476;53.468;9.826;2023-07-13T03:22:25;4.17;;;3.77;;
44165;SDS011;30476;53.468;9.826;2023-07-13T03:24:50;4.27;;;3.70;;
44165;SDS011;30476;53.468;9.826;2023-07-13T03:27:17;5.30;;;4.80;;
44165;SDS011;30476;53.468;9.826;2023-07-13T03:29:43;4.40;;;4.00;;
44165;SDS011;30476;53.468;9.826;2023-07-13T03:32:09;4.00;;;3.60;;
44165;SDS011;30476;53.468;9.826;2023-07-13T03:34:35;3.43;;;3.13;;
44165;SDS011;30476;53.468;9.826;2023-07-13T03:37:01;4.83;;;4.43;;
44165;SDS011;30476;53.468;9.826;2023-07-13T03:39:26;5.10;;;4.23;;
44165;SDS011;30476;53.468;9.826;2023-07-13T03:41:52;4.20;;;3.80;;
44165;SDS011;30476;53.468;9.826;2023-07-13T03:44:18;4.27;;;3.97;;
44165;SDS011;30476;53.468;9.826;2023-07-13T03:46:44;5.23;;;4.10;;
44165;SDS011;30476;53.468;9.826;2023-07-13T03:49:10;3.60;;;3.30;;
44165;SDS011;30476;53.468;9.826;2023-07-13T03:51:36;3.70;;;3.40;;
44165;SDS011;30476;53.468;9.826;2023-07-13T03:54:02;3.50;;;3.30;;
44165;SDS011;30476;53.468;9.826;2023-07-13T03:56:29;3.70;;;3.40;;
44165;SDS011;30476;53.468;9.826;2023-07-13T03:58:55;3.50;;;3.20;;
44165;SDS011;30476;53.468;9.826;2023-07-13T04:01:22;3.27;;;3.07;;
44165;SDS011;30476;53.468;9.826;2023-07-13T04:03:50;4.23;;;3.87;;
44165;SDS011;30476;53.468;9.826;2023-07-13T04:06:17;4.10;;;3.87;;
44165;SDS011;30476;53.468;9.826;2023-07-13T04:08:46;3.47;;;3.17;;
44165;SDS011;30476;53.468;9.826;2023-07-13T04:11:14;4.10;;;3.80;;
44165;SDS011;30476;53.468;9.826;2023-07-13T04:13:40;3.97;;;3.77;;
44165;SDS011;30476;53.468;9.826;2023-07-13T04:16:06;3.40;;;3.20;;
44165;SDS011;30476;53.468;9.826;2023-07-13T04:18:32;4.50;;;3.17;;
44165;SDS011;30476;53.468;9.826;2023-07-13T04:20:57;3.90;;;3.47;;
44165;SDS011;30476;53.468;9.826;2023-07-13T04:23:23;4.73;;;4.43;;
44165;SDS011;30476;53.468;9.826;2023-07-13T04:25:51;4.17;;;3.60;;
44165;SDS011;30476;53.468;9.826;2023-07-13T04:28:21;4.13;;;3.77;;
44165;SDS011;30476;53.468;9.826;2023-07-13T04:30:49;5.77;;;5.00;;
44165;SDS011;30476;53.468;9.826;2023-07-13T04:33:15;5.00;;;3.60;;
44165;SDS011;30476;53.468;9.826;2023-07-13T04:35:42;4.10;;;3.70;;
44165;SDS011;30476;53.468;9.826;2023-07-13T04:38:09;5.50;;;4.07;;
44165;SDS011;30476;53.468;9.826;2023-07-13T04:40:36;5.43;;;4.93;;
44165;SDS011;30476;53.468;9.826;2023-07-13T04:43:02;6.03;;;4.30;;
44165;SDS011;30476;53.468;9.826;2023-07-13T04:45:28;4.50;;;4.10;;
44165;SDS011;30476;53.468;9.826;2023-07-13T04:47:55;8.13;;;5.20;;
44165;SDS011;30476;53.468;9.826;2023-07-13T04:50:21;5.87;;;4.70;;
44165;SDS011;30476;53.468;9.826;2023-07-13T04:52:49;5.00;;;4.50;;
44165;SDS011;30476;53.468;9.826;2023-07-13T04:55:18;10.37;;;5.03;;
44165;SDS011;30476;53.468;9.826;2023-07-13T04:57:45;6.53;;;5.17;;
44165;SDS011;30476;53.468;9.826;2023-07-13T05:00:11;4.90;;;4.13;;
44165;SDS011;30476;53.468;9.826;2023-07-13T05:02:39;5.53;;;4.70;;
44165;SDS011;30476;53.468;9.826;2023-07-13T05:05:05;5.37;;;4.57;;
44165;SDS011;30476;53.468;9.826;2023-07-13T05:07:32;5.33;;;4.83;;
44165;SDS011;30476;53.468;9.826;2023-07-13T05:09:58;4.27;;;3.83;;
44165;SDS011;30476;53.468;9.826;2023-07-13T05:12:25;5.63;;;4.40;;
44165;SDS011;30476;53.468;9.826;2023-07-13T05:14:51;6.00;;;5.20;;
44165;SDS011;30476;53.468;9.826;2023-07-13T05:17:17;4.23;;;3.83;;
44165;SDS011;30476;53.468;9.826;2023-07-13T05:19:43;4.70;;;3.80;;
44165;SDS011;30476;53.468;9.826;2023-07-13T05:22:09;4.60;;;4.13;;
44165;SDS011;30476;53.468;9.826;2023-07-13T05:24:35;4.30;;;3.90;;
44165;SDS011;30476;53.468;9.826;2023-07-13T05:27:01;3.70;;;3.40;;
44165;SDS011;30476;53.468;9.826;2023-07-13T05:29:26;4.83;;;4.40;;
44165;SDS011;30476;53.468;9.826;2023-07-13T05:31:52;5.37;;;3.70;;
44165;SDS011;30476;53.468;9.826;2023-07-13T05:34:18;4.47;;;3.70;;
44165;SDS011;30476;53.468;9.826;2023-07-13T05:36:44;4.57;;;3.30;;
44165;SDS011;30476;53.468;9.826;2023-07-13T05:39:10;4.70;;;4.30;;
44165;SDS011;30476;53.468;9.826;2023-07-13T05:41:36;3.87;;;3.60;;
44165;SDS011;30476;53.468;9.826;2023-07-13T05:44:03;4.87;;;3.33;;
44165;SDS011;30476;53.468;9.826;2023-07-13T05:46:28;4.60;;;3.70;;
44165;SDS011;30476;53.468;9.826;2023-07-13T05:48:54;6.73;;;3.90;;
44165;SDS011;30476;53.468;9.826;2023-07-13T05:51:20;4.70;;;3.90;;
44165;SDS011;30476;53.468;9.826;2023-07-13T05:53:46;4.57;;;3.83;;
44165;SDS011;30476;53.468;9.826;2023-07-13T05:56:11;5.53;;;3.50;;
44165;SDS011;30476;53.468;9.826;2023-07-13T05:58:37;7.10;;;3.67;;
44165;SDS011;30476;53.468;9.826;2023-07-13T06:01:05;5.17;;;4.77;;
44165;SDS011;30476;53.468;9.826;2023-07-13T06:03:32;5.37;;;3.30;;
44165;SDS011;30476;53.468;9.826;2023-07-13T06:05:58;3.53;;;3.20;;
44165;SDS011;30476;53.468;9.826;2023-07-13T06:08:28;4.00;;;3.27;;
44165;SDS011;30476;53.468;9.826;2023-07-13T06:10:54;4.97;;;3.70;;
44165;SDS011;30476;53.468;9.826;2023-07-13T06:13:20;4.00;;;2.90;;
44165;SDS011;30476;53.468;9.826;2023-07-13T06:15:49;4.40;;;3.93;;
44165;SDS011;30476;53.468;9.826;2023-07-13T06:18:15;5.17;;;3.40;;
44165;SDS011;30476;53.468;9.826;2023-07-13T06:20:41;5.93;;;2.97;;
44165;SDS011;30476;53.468;9.826;2023-07-13T06:23:06;3.17;;;2.97;;
44165;SDS011;30476;53.468;9.826;2023-07-13T06:25:32;4.77;;;2.80;;
44165;SDS011;30476;53.468;9.826;2023-07-13T06:27:58;9.30;;;3.60;;
44165;SDS011;30476;53.468;9.826;2023-07-13T06:30:24;5.33;;;3.00;;
44165;SDS011;30476;53.468;9.826;2023-07-13T06:32:49;2.77;;;2.57;;
44165;SDS011;30476;53.468;9.826;2023-07-13T06:35:15;4.33;;;2.93;;
44165;SDS011;30476;53.468;9.826;2023-07-13T06:37:41;3.97;;;2.93;;
44165;SDS011;30476;53.468;9.826;2023-07-13T06:40:07;5.67;;;2.70;;
44165;SDS011;30476;53.468;9.826;2023-07-13T06:42:33;6.73;;;2.70;;
44165;SDS011;30476;53.468;9.826;2023-07-13T06:44:59;4.47;;;2.60;;
44165;SDS011;30476;53.468;9.826;2023-07-13T06:47:25;4.43;;;2.60;;
44165;SDS011;30476;53.468;9.826;2023-07-13T06:49:50;5.97;;;2.60;;
44165;SDS011;30476;53.468;9.826;2023-07-13T06:52:16;2.97;;;2.47;;
44165;SDS011;30476;53.468;9.826;2023-07-13T06:54:42;4.63;;;3.27;;
44165;SDS011;30476;53.468;9.826;2023-07-13T06:57:08;4.07;;;2.80;;
44165;SDS011;30476;53.468;9.826;2023-07-13T06:59:33;5.30;;;2.40;;
44165;SDS011;30476;53.468;9.826;2023-07-13T07:01:59;4.17;;;2.40;;
44165;SDS011;30476;53.468;9.826;2023-07-13T07:04:25;3.83;;;2.60;;
44165;SDS011;30476;53.468;9.826;2023-07-13T07:06:51;6.43;;;2.57;;
44165;SDS011;30476;53.468;9.826;2023-07-13T07:09:17;7.00;;;2.93;;
44165;SDS011;30476;53.468;9.826;2023-07-13T07:11:43;5.30;;;2.57;;
44165;SDS011;30476;53.468;9.826;2023-07-13T07:14:09;2.50;;;2.30;;
44165;SDS011;30476;53.468;9.826;2023-07-13T07:16:34;3.00;;;2.37;;
44165;SDS011;30476;53.468;9.826;2023-07-13T07:19:00;3.60;;;2.00;;
44165;SDS011;30476;53.468;9.826;2023-07-13T07:21:26;4.90;;;2.53;;
44165;SDS011;30476;53.468;9.826;2023-07-13T07:23:52;6.27;;;2.00;;
44165;SDS011;30476;53.468;9.826;2023-07-13T07:26:18;3.97;;;2.50;;
44165;SDS011;30476;53.468;9.826;2023-07-13T07:28:44;5.07;;;2.40;;
44165;SDS011;30476;53.468;9.826;2023-07-13T07:31:10;6.87;;;2.53;;
44165;SDS011;30476;53.468;9.826;2023-07-13T07:33:36;7.50;;;2.20;;
44165;SDS011;30476;53.468;9.826;2023-07-13T07:36:02;6.87;;;2.73;;
44165;SDS011;30476;53.468;9.826;2023-07-13T07:38:28;5.70;;;3.30;;
44165;SDS011;30476;53.468;9.826;2023-07-13T07:40:54;6.50;;;3.10;;
44165;SDS011;30476;53.468;9.826;2023-07-13T07:43:20;7.33;;;2.20;;
44165;SDS011;30476;53.468;9.826;2023-07-13T07:49:08;6.63;;;3.00;;
44165;SDS011;30476;53.468;9.826;2023-07-13T07:51:33;4.57;;;2.67;;
44165;SDS011;30476;53.468;9.826;2023-07-13T07:53:59;5.67;;;3.00;;
44165;SDS011;30476;53.468;9.826;2023-07-13T07:56:25;5.20;;;3.07;;
44165;SDS011;30476;53.468;9.826;2023-07-13T07:58:51;5.23;;;2.60;;
44165;SDS011;30476;53.468;9.826;2023-07-13T08:01:17;3.70;;;2.43;;
44165;SDS011;30476;53.468;9.826;2023-07-13T08:03:43;3.80;;;3.30;;
44165;SDS011;30476;53.468;9.826;2023-07-13T08:06:08;6.37;;;3.13;;
44165;SDS011;30476;53.468;9.826;2023-07-13T08:08:34;4.40;;;3.93;;
44165;SDS011;30476;53.468;9.826;2023-07-13T08:11:03;5.67;;;3.57;;
44165;SDS011;30476;53.468;9.826;2023-07-13T08:13:30;11.20;;;4.00;;
44165;SDS011;30476;53.468;9.826;2023-07-13T08:15:56;7.40;;;4.33;;
44165;SDS011;30476;53.468;9.826;2023-07-13T08:18:22;3.80;;;3.50;;
44165;SDS011;30476;53.468;9.826;2023-07-13T08:20:48;5.73;;;3.40;;
44165;SDS011;30476;53.468;9.826;2023-07-13T08:23:13;6.13;;;5.50;;
44165;SDS011;30476;53.468;9.826;2023-07-13T08:25:41;5.27;;;4.70;;
44165;SDS011;30476;53.468;9.826;2023-07-13T08:28:07;5.03;;;3.83;;
44165;SDS011;30476;53.468;9.826;2023-07-13T08:30:33;3.60;;;3.40;;
44165;SDS011;30476;53.468;9.826;2023-07-13T08:32:59;3.63;;;3.27;;
44165;SDS011;30476;53.468;9.826;2023-07-13T08:35:25;5.53;;;3.10;;
44165;SDS011;30476;53.468;9.826;2023-07-13T08:37:51;6.17;;;3.10;;
44165;SDS011;30476;53.468;9.826;2023-07-13T08:40:17;3.57;;;3.20;;
44165;SDS011;30476;53.468;9.826;2023-07-13T08:42:51;3.77;;;3.53;;
44165;SDS011;30476;53.468;9.826;2023-07-13T08:45:22;4.40;;;3.20;;
44165;SDS011;30476;53.468;9.826;2023-07-13T08:47:52;7.20;;;5.50;;
44165;SDS011;30476;53.468;9.826;2023-07-13T08:50:23;4.70;;;2.90;;
44165;SDS011;30476;53.468;9.826;2023-07-13T08:52:52;4.23;;;3.30;;
44165;SDS011;30476;53.468;9.826;2023-07-13T08:55:21;4.23;;;3.23;;
44165;SDS011;30476;53.468;9.826;2023-07-13T08:57:53;2.67;;;2.57;;
44165;SDS011;30476;53.468;9.826;2023-07-13T09:00:25;4.00;;;2.93;;
44165;SDS011;30476;53.468;9.826;2023-07-13T09:03:02;4.20;;;2.60;;
44165;SDS011;30476;53.468;9.826;2023-07-13T09:05:31;3.63;;;3.33;;
44165;SDS011;30476;53.468;9.826;2023-07-13T09:08:04;3.70;;;3.40;;
44165;SDS011;30476;53.468;9.826;2023-07-13T09:11:12;7.27;;;4.53;;
44165;SDS011;30476;53.468;9.826;2023-07-13T09:16:51;3.23;;;3.03;;
44165;SDS011;30476;53.468;9.826;2023-07-13T09:19:20;4.50;;;3.10;;
44165;SDS011;30476;53.468;9.826;2023-07-13T09:21:51;5.23;;;2.90;;
44165;SDS011;30476;53.468;9.826;2023-07-13T09:24:39;2.97;;;2.77;;
44165;SDS011;30476;53.468;9.826;2023-07-13T09:27:15;3.60;;;3.30;;
44165;SDS011;30476;53.468;9.826;2023-07-13T09:29:47;5.50;;;3.23;;
44165;SDS011;30476;53.468;9.826;2023-07-13T09:32:30;3.50;;;3.20;;
44165;SDS011;30476;53.468;9.826;2023-07-13T09:34:57;2.90;;;2.70;;
44165;SDS011;30476;53.468;9.826;2023-07-13T09:37:26;3.67;;;2.80;;
44165;SDS011;30476;53.468;9.826;2023-07-13T09:39:56;2.77;;;2.57;;
44165;SDS011;30476;53.468;9.826;2023-07-13T09:42:24;2.97;;;2.80;;
44165;SDS011;30476;53.468;9.826;2023-07-13T09:44:54;3.20;;;2.40;;
44165;SDS011;30476;53.468;9.826;2023-07-13T09:47:23;2.77;;;2.57;;
44165;SDS011;30476;53.468;9.826;2023-07-13T09:49:58;2.27;;;1.60;;
44165;SDS011;30476;53.468;9.826;2023-07-13T09:52:25;2.33;;;2.00;;
44165;SDS011;30476;53.468;9.826;2023-07-13T09:54:53;3.23;;;2.07;;
44165;SDS011;30476;53.468;9.826;2023-07-13T09:57:25;2.33;;;2.13;;
44165;SDS011;30476;53.468;9.826;2023-07-13T09:59:54;5.77;;;2.57;;
44165;SDS011;30476;53.468;9.826;2023-07-13T10:02:22;2.43;;;1.73;;
44165;SDS011;30476;53.468;9.826;2023-07-13T10:04:59;2.73;;;1.80;;
44165;SDS011;30476;53.468;9.826;2023-07-13T10:07:25;1.87;;;1.77;;
44165;SDS011;30476;53.468;9.826;2023-07-13T10:09:52;3.07;;;1.50;;
44165;SDS011;30476;53.468;9.826;2023-07-13T10:12:20;2.23;;;1.70;;
44165;SDS011;30476;53.468;9.826;2023-07-13T10:14:48;2.17;;;1.97;;
44165;SDS011;30476;53.468;9.826;2023-07-13T10:17:17;1.80;;;1.50;;
44165;SDS011;30476;53.468;9.826;2023-07-13T10:19:50;2.40;;;1.90;;
44165;SDS011;30476;53.468;9.826;2023-07-13T10:24:52;4.90;;;1.83;;
44165;SDS011;30476;53.468;9.826;2023-07-13T10:27:20;4.30;;;3.33;;
44165;SDS011;30476;53.468;9.826;2023-07-13T10:29:56;32.93;;;15.93;;
44165;SDS011;30476;53.468;9.826;2023-07-13T10:32:40;49.80;;;21.17;;
44165;SDS011;30476;53.468;9.826;2023-07-13T10:35:08;58.13;;;17.70;;
44165;SDS011;30476;53.468;9.826;2023-07-13T10:37:43;23.50;;;10.50;;
44165;SDS011;30476;53.468;9.826;2023-07-13T10:40:22;2.93;;;1.93;;
44165;SDS011;30476;53.468;9.826;2023-07-13T10:42:53;3.63;;;3.10;;
44165;SDS011;30476;53.468;9.826;2023-07-13T10:45:23;2.17;;;1.40;;
44165;SDS011;30476;53.468;9.826;2023-07-13T10:47:50;2.63;;;1.40;;
44165;SDS011;30476;53.468;9.826;2023-07-13T10:50:21;1.40;;;1.30;;
44165;SDS011;30476;53.468;9.826;2023-07-13T10:52:54;3.70;;;1.83;;
44165;SDS011;30476;53.468;9.826;2023-07-13T10:58:22;1.43;;;1.33;;
44165;SDS011;30476;53.468;9.826;2023-07-13T11:03:17;1.60;;;1.50;;
44165;SDS011;30476;53.468;9.826;2023-07-13T11:05:48;1.67;;;1.40;;
44165;SDS011;30476;53.468;9.826;2023-07-13T11:08:20;3.30;;;2.10;;
44165;SDS011;30476;53.468;9.826;2023-07-13T11:10:58;1.40;;;1.30;;
44165;SDS011;30476;53.468;9.826;2023-07-13T11:19:18;1.37;;;1.27;;
44165;SDS011;30476;53.468;9.826;2023-07-13T11:27:36;2.17;;;1.20;;
44165;SDS011;30476;53.468;9.826;2023-07-13T11:30:24;2.17;;;1.30;;
44165;SDS011;30476;53.468;9.826;2023-07-13T11:33:04;1.60;;;1.33;;
44165;SDS011;30476;53.468;9.826;2023-07-13T11:35:46;3.80;;;1.20;;
44165;SDS011;30476;53.468;9.826;2023-07-13T11:38:32;4.17;;;1.30;;
44165;SDS011;30476;53.468;9.826;2023-07-13T11:41:06;2.30;;;1.27;;
44165;SDS011;30476;53.468;9.826;2023-07-13T11:43:40;1.83;;;1.20;;
44165;SDS011;30476;53.468;9.826;2023-07-13T11:46:13;1.37;;;1.10;;
44165;SDS011;30476;53.468;9.826;2023-07-13T11:48:40;1.67;;;1.40;;
44165;SDS011;30476;53.468;9.826;2023-07-13T11:51:20;3.10;;;1.20;;
44165;SDS011;30476;53.468;9.826;2023-07-13T11:53:49;1.33;;;1.23;;
44165;SDS011;30476;53.468;9.826;2023-07-13T11:56:16;1.63;;;1.20;;
44165;SDS011;30476;53.468;9.826;2023-07-13T11:58:43;1.20;;;1.10;;
44165;SDS011;30476;53.468;9.826;2023-07-13T12:01:15;12.10;;;1.57;;
44165;SDS011;30476;53.468;9.826;2023-07-13T12:03:47;2.43;;;1.50;;
44165;SDS011;30476;53.468;9.826;2023-07-13T12:09:00;1.57;;;1.40;;
44165;SDS011;30476;53.468;9.826;2023-07-13T12:11:28;1.30;;;1.20;;
44165;SDS011;30476;53.468;9.826;2023-07-13T12:13:55;1.40;;;1.30;;
44165;SDS011;30476;53.468;9.826;2023-07-13T12:18:50;2.43;;;1.30;;
44165;SDS011;30476;53.468;9.826;2023-07-13T12:21:18;1.80;;;1.70;;
44165;SDS011;30476;53.468;9.826;2023-07-13T12:23:47;2.40;;;1.20;;
44165;SDS011;30476;53.468;9.826;2023-07-13T12:26:14;1.53;;;1.40;;
44165;SDS011;30476;53.468;9.826;2023-07-13T12:28:49;3.53;;;1.30;;
44165;SDS011;30476;53.468;9.826;2023-07-13T12:31:23;3.43;;;1.23;;
44165;SDS011;30476;53.468;9.826;2023-07-13T12:33:55;1.47;;;1.37;;
44165;SDS011;30476;53.468;9.826;2023-07-13T12:36:22;2.40;;;1.33;;
44165;SDS011;30476;53.468;9.826;2023-07-13T12:38:48;2.20;;;1.20;;
44165;SDS011;30476;53.468;9.826;2023-07-13T12:41:14;1.23;;;1.13;;
44165;SDS011;30476;53.468;9.826;2023-07-13T12:43:40;1.80;;;1.10;;
44165;SDS011;30476;53.468;9.826;2023-07-13T12:46:17;1.47;;;1.37;;
44165;SDS011;30476;53.468;9.826;2023-07-13T12:48:52;1.33;;;1.23;;
44165;SDS011;30476;53.468;9.826;2023-07-13T12:51:24;2.60;;;1.37;;
44165;SDS011;30476;53.468;9.826;2023-07-13T12:53:56;2.10;;;1.27;;
44165;SDS011;30476;53.468;9.826;2023-07-13T12:56:30;1.60;;;1.40;;
44165;SDS011;30476;53.468;9.826;2023-07-13T12:59:00;1.73;;;1.20;;
44165;SDS011;30476;53.468;9.826;2023-07-13T13:01:29;3.10;;;1.20;;
44165;SDS011;30476;53.468;9.826;2023-07-13T13:04:00;1.50;;;1.40;;
44165;SDS011;30476;53.468;9.826;2023-07-13T13:06:31;1.40;;;1.30;;
44165;SDS011;30476;53.468;9.826;2023-07-13T13:08:58;1.97;;;1.20;;
44165;SDS011;30476;53.468;9.826;2023-07-13T13:11:25;2.20;;;1.37;;
44165;SDS011;30476;53.468;9.826;2023-07-13T13:13:52;1.30;;;1.20;;
44165;SDS011;30476;53.468;9.826;2023-07-13T13:18:50;1.40;;;1.30;;
44165;SDS011;30476;53.468;9.826;2023-07-13T13:21:18;1.23;;;1.13;;
44165;SDS011;30476;53.468;9.826;2023-07-13T13:23:44;1.80;;;1.27;;
44165;SDS011;30476;53.468;9.826;2023-07-13T13:26:11;1.53;;;1.10;;
44165;SDS011;30476;53.468;9.826;2023-07-13T13:28:41;1.40;;;1.30;;
44165;SDS011;30476;53.468;9.826;2023-07-13T13:31:08;1.73;;;1.30;;
44165;SDS011;30476;53.468;9.826;2023-07-13T13:33:39;1.37;;;1.27;;
44165;SDS011;30476;53.468;9.826;2023-07-13T13:36:18;1.83;;;1.73;;
44165;SDS011;30476;53.468;9.826;2023-07-13T13:38:45;1.27;;;1.17;;
44165;SDS011;30476;53.468;9.826;2023-07-13T13:41:13;2.20;;;1.40;;
44165;SDS011;30476;53.468;9.826;2023-07-13T13:43:40;1.70;;;1.60;;
44165;SDS011;30476;53.468;9.826;2023-07-13T13:46:24;1.40;;;1.30;;
44165;SDS011;30476;53.468;9.826;2023-07-13T13:48:50;1.83;;;1.73;;
44165;SDS011;30476;53.468;9.826;2023-07-13T13:51:20;1.60;;;1.43;;
44165;SDS011;30476;53.468;9.826;2023-07-13T13:53:47;1.73;;;1.63;;
44165;SDS011;30476;53.468;9.826;2023-07-13T13:56:13;1.30;;;1.20;;
44165;SDS011;30476;53.468;9.826;2023-07-13T13:58:40;2.10;;;1.40;;
44165;SDS011;30476;53.468;9.826;2023-07-13T14:01:13;1.53;;;1.30;;
44165;SDS011;30476;53.468;9.826;2023-07-13T14:03:43;1.70;;;1.30;;
44165;SDS011;30476;53.468;9.826;2023-07-13T14:06:12;1.20;;;1.10;;
44165;SDS011;30476;53.468;9.826;2023-07-13T14:08:39;2.50;;;1.30;;
44165;SDS011;30476;53.468;9.826;2023-07-13T14:11:05;1.27;;;1.20;;
44165;SDS011;30476;53.468;9.826;2023-07-13T14:13:38;2.00;;;1.40;;
44165;SDS011;30476;53.468;9.826;2023-07-13T14:16:10;1.27;;;1.17;;
44165;SDS011;30476;53.468;9.826;2023-07-13T14:18:38;1.30;;;1.20;;
44165;SDS011;30476;53.468;9.826;2023-07-13T14:21:08;1.30;;;1.20;;
44165;SDS011;30476;53.468;9.826;2023-07-13T14:23:38;1.30;;;1.20;;
44165;SDS011;30476;53.468;9.826;2023-07-13T14:26:07;1.60;;;1.20;;
44165;SDS011;30476;53.468;9.826;2023-07-13T14:28:36;1.97;;;1.40;;
44165;SDS011;30476;53.468;9.826;2023-07-13T14:31:07;2.50;;;1.30;;
44165;SDS011;30476;53.468;9.826;2023-07-13T14:33:33;2.30;;;1.03;;
44165;SDS011;30476;53.468;9.826;2023-07-13T14:35:58;1.50;;;1.40;;
44165;SDS011;30476;53.468;9.826;2023-07-13T14:38:24;1.40;;;1.30;;
44165;SDS011;30476;53.468;9.826;2023-07-13T14:40:50;2.03;;;1.93;;
44165;SDS011;30476;53.468;9.826;2023-07-13T14:43:16;1.63;;;1.53;;
44165;SDS011;30476;53.468;9.826;2023-07-13T14:45:44;1.97;;;1.87;;
44165;SDS011;30476;53.468;9.826;2023-07-13T14:48:19;1.50;;;1.40;;
44165;SDS011;30476;53.468;9.826;2023-07-13T14:50:49;1.73;;;1.40;;
44165;SDS011;30476;53.468;9.826;2023-07-13T14:53:19;1.87;;;1.77;;
44165;SDS011;30476;53.468;9.826;2023-07-13T14:55:44;1.93;;;1.83;;
44165;SDS011;30476;53.468;9.826;2023-07-13T14:58:10;1.87;;;1.57;;
44165;SDS011;30476;53.468;9.826;2023-07-13T15:00:36;2.30;;;1.60;;
44165;SDS011;30476;53.468;9.826;2023-07-13T15:03:02;1.90;;;1.80;;
44165;SDS011;30476;53.468;9.826;2023-07-13T15:05:31;2.30;;;1.43;;
44165;SDS011;30476;53.468;9.826;2023-07-13T15:07:58;3.40;;;1.50;;
44165;SDS011;30476;53.468;9.826;2023-07-13T15:10:27;1.43;;;1.33;;
44165;SDS011;30476;53.468;9.826;2023-07-13T15:12:58;1.50;;;1.40;;
44165;SDS011;30476;53.468;9.826;2023-07-13T15:15:27;1.67;;;1.37;;
44165;SDS011;30476;53.468;9.826;2023-07-13T15:17:54;1.43;;;1.30;;
44165;SDS011;30476;53.468;9.826;2023-07-13T15:20:23;1.40;;;1.30;;
44165;SDS011;30476;53.468;9.826;2023-07-13T15:22:55;1.80;;;1.13;;
44165;SDS011;30476;53.468;9.826;2023-07-13T15:25:23;1.47;;;1.37;;
44165;SDS011;30476;53.468;9.826;2023-07-13T15:27:51;1.00;;;1.00;;
44165;SDS011;30476;53.468;9.826;2023-07-13T15:30:17;1.47;;;1.10;;